Time;durP1;ratioP1;P1;durP2;ratioP2;P2;SDS_P1;SDS_P2;PMS_P1;PMS_P2;Temp;Humidity;BMP_temperature;BMP_pressure;BME280_temperature;BME280_humidity;BME280_pressure;Samples;Min_cycle;Max_cycle;Signal;HPM_P1;HPM_P2
2023/12/02 00:01:55;;;;;;;9.97;5.10;;;5.30;99.90;;;;;;5043413;28;20139;-73
2023/12/02 00:04:20;;;;;;;9.82;4.43;;;5.40;99.90;;;;;;5039350;28;20197;-72
2023/12/02 00:06:46;;;;;;;10.30;5.63;;;5.30;99.90;;;;;;5051609;28;20033;-72
2023/12/02 00:09:12;;;;;;;11.00;5.17;;;5.30;99.90;;;;;;5035807;28;20017;-70
2023/12/02 00:11:38;;;;;;;10.27;5.63;;;5.30;99.90;;;;;;5034711;28;20029;-71
2023/12/02 00:14:03;;;;;;;8.90;5.07;;;5.30;99.90;;;;;;5039961;28;20111;-70
2023/12/02 00:16:29;;;;;;;8.85;5.80;;;5.30;99.90;;;;;;5041259;28;20108;-74
2023/12/02 00:18:55;;;;;;;14.95;7.32;;;5.30;99.90;;;;;;5035883;28;20025;-73
2023/12/02 00:21:21;;;;;;;12.20;7.03;;;5.30;99.90;;;;;;5043762;28;20055;-76
2023/12/02 00:23:46;;;;;;;15.43;7.53;;;5.20;99.90;;;;;;5039672;28;20810;-74
2023/12/02 00:26:12;;;;;;;14.50;7.73;;;5.20;99.90;;;;;;5041761;28;20080;-76
2023/12/02 00:28:38;;;;;;;17.10;8.93;;;5.20;99.90;;;;;;5039032;28;20036;-73
2023/12/02 00:31:04;;;;;;;18.57;7.97;;;5.30;99.90;;;;;;5048322;28;20381;-74
2023/12/02 00:33:29;;;;;;;15.43;8.07;;;5.30;99.90;;;;;;5040728;28;20030;-71
2023/12/02 00:35:56;;;;;;;14.73;8.85;;;5.30;99.90;;;;;;5039907;28;20060;-71
2023/12/02 00:38:21;;;;;;;18.23;9.75;;;5.30;99.90;;;;;;5037192;28;20041;-76
2023/12/02 00:40:47;;;;;;;16.10;9.73;;;5.30;99.90;;;;;;5042778;28;20045;-78
2023/12/02 00:43:12;;;;;;;19.43;10.60;;;5.30;99.90;;;;;;5036599;28;20524;-73
2023/12/02 00:45:38;;;;;;;21.60;10.37;;;5.30;99.90;;;;;;5043988;28;20099;-71
2023/12/02 00:48:03;;;;;;;20.43;10.93;;;5.20;99.90;;;;;;5038022;28;20048;-76
2023/12/02 00:50:29;;;;;;;21.67;10.73;;;5.20;99.90;;;;;;5037710;28;20546;-74
2023/12/02 00:52:56;;;;;;;21.80;10.13;;;5.20;99.90;;;;;;5034711;28;20029;-79
2023/12/02 00:55:22;;;;;;;21.00;10.05;;;5.20;99.90;;;;;;5041446;28;20121;-75
2023/12/02 00:57:48;;;;;;;23.77;11.45;;;5.10;99.90;;;;;;5043631;28;20501;-74
2023/12/02 01:00:15;;;;;;;25.77;11.10;;;5.20;99.90;;;;;;5038192;28;20702;-73
2023/12/02 01:02:41;;;;;;;25.45;11.93;;;5.10;99.90;;;;;;5034823;28;20037;-78
2023/12/02 01:05:07;;;;;;;22.92;11.43;;;5.10;99.90;;;;;;5045168;28;20305;-76
2023/12/02 01:07:33;;;;;;;22.88;11.77;;;5.10;99.90;;;;;;5052595;28;20601;-78
2023/12/02 01:09:58;;;;;;;27.93;12.80;;;5.00;99.90;;;;;;5035645;28;20049;-79
2023/12/02 01:12:24;;;;;;;24.57;12.47;;;5.10;99.90;;;;;;5048684;28;20078;-74
2023/12/02 01:14:49;;;;;;;24.13;11.57;;;5.10;99.90;;;;;;5039616;28;21134;-79
2023/12/02 01:17:16;;;;;;;27.90;12.93;;;5.00;99.90;;;;;;5040092;28;20075;-74
2023/12/02 01:19:43;;;;;;;25.23;12.25;;;5.00;99.90;;;;;;5032921;28;20028;-77
2023/12/02 01:22:08;;;;;;;32.10;14.48;;;4.90;99.90;;;;;;5036448;28;20064;-79
2023/12/02 01:24:34;;;;;;;29.13;14.07;;;4.90;99.90;;;;;;5037987;28;20489;-78
2023/12/02 01:26:59;;;;;;;36.43;16.23;;;4.90;99.90;;;;;;5039922;28;20134;-75
2023/12/02 01:29:25;;;;;;;28.50;14.30;;;5.00;99.90;;;;;;5038007;28;20025;-78
2023/12/02 01:31:50;;;;;;;31.40;13.23;;;5.00;99.90;;;;;;5035174;28;20392;-79
2023/12/02 01:34:16;;;;;;;24.03;12.20;;;5.00;99.90;;;;;;5042093;28;20025;-79
2023/12/02 01:36:43;;;;;;;29.42;12.77;;;5.00;99.90;;;;;;5037316;28;20102;-74
2023/12/02 01:39:10;;;;;;;26.40;13.57;;;5.00;99.90;;;;;;5033594;28;20124;-76
2023/12/02 01:41:35;;;;;;;26.50;12.63;;;5.00;99.90;;;;;;5036323;28;20041;-74
2023/12/02 01:44:01;;;;;;;27.77;13.57;;;5.00;99.90;;;;;;5041473;28;20462;-78
2023/12/02 01:46:26;;;;;;;28.60;13.37;;;4.90;99.90;;;;;;5038709;28;20033;-78
2023/12/02 01:48:52;;;;;;;27.07;13.70;;;4.80;99.90;;;;;;5036853;28;20615;-72
2023/12/02 01:51:18;;;;;;;30.05;13.55;;;4.80;99.90;;;;;;5032003;28;20307;-70
2023/12/02 01:53:44;;;;;;;31.33;14.60;;;4.90;99.90;;;;;;5035736;28;20106;-74
2023/12/02 01:56:11;;;;;;;28.37;14.17;;;4.90;99.90;;;;;;5040551;28;20342;-75
2023/12/02 01:58:37;;;;;;;27.23;12.55;;;4.90;99.90;;;;;;5035500;28;21352;-76
2023/12/02 02:01:04;;;;;;;25.58;12.45;;;4.90;99.90;;;;;;5034496;28;20135;-75
2023/12/02 02:03:31;;;;;;;25.55;13.55;;;4.90;99.90;;;;;;5041749;28;20037;-73
2023/12/02 02:05:56;;;;;;;;;;;4.90;99.90;;;;;;5044445;28;20032;-76
2023/12/02 02:08:22;;;;;;;28.92;13.38;;;4.90;99.90;;;;;;5031981;28;19908;-78
2023/12/02 02:10:55;;;;;;;26.67;14.70;;;4.80;99.90;;;;;;5035976;28;20508;-78
2023/12/02 02:13:21;;;;;;;29.17;14.13;;;4.80;99.90;;;;;;5036611;28;20017;-73
2023/12/02 02:15:46;;;;;;;29.00;14.30;;;4.90;99.90;;;;;;5041306;28;20685;-77
2023/12/02 02:18:12;;;;;;;29.43;13.93;;;4.80;99.90;;;;;;5032377;28;20276;-70
2023/12/02 02:20:37;;;;;;;30.57;14.63;;;4.80;99.90;;;;;;5033994;28;20382;-71
2023/12/02 02:23:04;;;;;;;28.90;14.73;;;4.80;99.90;;;;;;5049387;28;20049;-71
2023/12/02 02:25:30;;;;;;;28.58;14.13;;;4.80;99.90;;;;;;5038977;28;20024;-73
2023/12/02 02:27:55;;;;;;;25.98;13.57;;;4.80;99.90;;;;;;5038029;28;20037;-72
2023/12/02 02:30:22;;;;;;;27.40;14.77;;;4.70;99.90;;;;;;5042460;28;20061;-76
2023/12/02 02:32:47;;;;;;;24.25;13.85;;;4.70;99.90;;;;;;5043363;28;20029;-75
2023/12/02 02:35:13;;;;;;;27.20;13.90;;;4.70;99.90;;;;;;5044694;28;20029;-78
2023/12/02 02:37:38;;;;;;;26.53;14.43;;;4.70;99.90;;;;;;5039919;28;20512;-72
2023/12/02 02:40:05;;;;;;;25.60;15.13;;;4.70;99.90;;;;;;5032996;28;20643;-73
2023/12/02 02:42:31;;;;;;;24.75;13.18;;;4.70;99.90;;;;;;5039839;28;20045;-78
2023/12/02 02:44:57;;;;;;;28.00;14.18;;;4.70;99.90;;;;;;5042277;28;20133;-78
2023/12/02 02:47:22;;;;;;;29.00;14.20;;;4.70;99.90;;;;;;5038956;28;20170;-72
2023/12/02 02:49:48;;;;;;;27.63;14.83;;;4.60;99.90;;;;;;5037275;28;20036;-78
2023/12/02 02:52:13;;;;;;;29.67;15.30;;;4.70;99.90;;;;;;5038066;28;20488;-74
2023/12/02 02:54:39;;;;;;;27.70;14.20;;;4.60;99.90;;;;;;5043088;28;20020;-77
2023/12/02 02:57:05;;;;;;;27.50;15.53;;;4.60;99.90;;;;;;5034664;28;20017;-75
2023/12/02 02:59:31;;;;;;;31.90;15.27;;;4.60;99.90;;;;;;5031054;28;20028;-75
2023/12/02 03:01:56;;;;;;;28.02;14.68;;;4.50;99.90;;;;;;5040601;28;20127;-74
2023/12/02 03:04:23;;;;;;;26.43;13.00;;;4.50;99.90;;;;;;5036032;28;20330;-73
2023/12/02 03:06:48;;;;;;;25.45;13.48;;;4.50;99.90;;;;;;5038507;28;20025;-76
2023/12/02 03:09:14;;;;;;;27.95;13.30;;;4.50;99.90;;;;;;5037179;28;20048;-75
2023/12/02 03:11:40;;;;;;;23.30;12.33;;;4.50;99.90;;;;;;5041801;28;20495;-78
2023/12/02 03:14:06;;;;;;;24.65;12.25;;;4.50;99.90;;;;;;5033049;28;20500;-77
2023/12/02 03:16:32;;;;;;;25.88;12.98;;;4.50;99.90;;;;;;5043412;28;20084;-76
2023/12/02 03:18:57;;;;;;;21.57;12.37;;;4.40;99.90;;;;;;5032206;28;20035;-77
2023/12/02 03:21:23;;;;;;;22.77;12.33;;;4.40;99.90;;;;;;5042263;28;20564;-78
2023/12/02 03:23:49;;;;;;;23.53;12.80;;;4.50;99.90;;;;;;5039041;28;20828;-78
2023/12/02 03:26:16;;;;;;;;;;;4.50;99.90;;;;;;5042575;28;20050;-71
2023/12/02 03:28:42;;;;;;;23.35;12.43;;;4.40;99.90;;;;;;5039859;28;19908;-77
2023/12/02 03:31:09;;;;;;;25.33;12.70;;;4.50;99.90;;;;;;5038426;28;20047;-78
2023/12/02 03:33:34;;;;;;;22.83;12.38;;;4.50;99.90;;;;;;5041775;28;20167;-73
2023/12/02 03:36:01;;;;;;;21.80;11.73;;;4.40;99.90;;;;;;5046291;28;20116;-77
2023/12/02 03:38:27;;;;;;;22.42;11.52;;;4.40;99.90;;;;;;5035828;28;20311;-76
2023/12/02 03:40:52;;;;;;;21.73;11.60;;;4.40;99.90;;;;;;5043241;28;20424;-78
2023/12/02 03:43:18;;;;;;;20.47;11.70;;;4.50;99.90;;;;;;5047782;28;20037;-72
2023/12/02 03:45:43;;;;;;;24.30;12.40;;;4.50;99.90;;;;;;5047956;28;20102;-72
2023/12/02 03:48:09;;;;;;;19.13;10.67;;;4.40;99.90;;;;;;5049347;28;20092;-71
2023/12/02 03:50:34;;;;;;;19.33;10.63;;;4.50;99.90;;;;;;5049234;28;20013;-74
2023/12/02 03:53:00;;;;;;;19.60;10.83;;;4.50;99.90;;;;;;5049547;28;20797;-71
2023/12/02 03:55:26;;;;;;;17.00;10.43;;;4.40;99.90;;;;;;5049383;28;20032;-76
2023/12/02 03:57:51;;;;;;;16.90;10.10;;;4.40;99.90;;;;;;5043217;28;20910;-71
2023/12/02 04:00:19;;;;;;;20.63;10.53;;;4.40;99.90;;;;;;5029343;28;20033;-72
2023/12/02 04:02:45;;;;;;;19.48;8.88;;;4.40;99.90;;;;;;5048720;28;20148;-74
2023/12/02 04:05:14;;;;;;;16.15;8.75;;;4.40;99.90;;;;;;5048956;28;20025;-72
2023/12/02 04:07:40;;;;;;;15.48;8.95;;;4.30;99.90;;;;;;5048694;28;20058;-71
2023/12/02 04:10:07;;;;;;;14.18;8.65;;;4.30;99.90;;;;;;5049045;28;20036;-75
2023/12/02 04:12:34;;;;;;;15.80;9.05;;;4.30;99.90;;;;;;5050172;28;20037;-71
2023/12/02 04:15:00;;;;;;;13.70;8.07;;;4.30;99.90;;;;;;5048971;28;20133;-71
2023/12/02 04:17:26;;;;;;;21.40;8.93;;;4.30;99.90;;;;;;5048350;28;20363;-74
2023/12/02 04:19:52;;;;;;;14.18;7.97;;;4.20;99.90;;;;;;5048673;28;20032;-74
2023/12/02 04:22:19;;;;;;;16.67;8.60;;;4.20;99.90;;;;;;5048634;28;20496;-75
2023/12/02 04:24:44;;;;;;;;;;;4.20;99.90;;;;;;5049307;28;20037;-71
2023/12/02 04:27:11;;;;;;;16.02;8.63;;;4.20;99.90;;;;;;5048964;28;19909;-73
2023/12/02 04:29:40;;;;;;;18.15;8.98;;;4.20;99.90;;;;;;5048528;28;20024;-73
2023/12/02 04:32:06;;;;;;;15.82;8.88;;;4.20;99.90;;;;;;5048384;28;20036;-73
2023/12/02 04:34:33;;;;;;;18.08;9.90;;;4.10;99.90;;;;;;5043084;28;20499;-71
2023/12/02 04:36:58;;;;;;;;;;;4.10;99.90;;;;;;5028782;28;20045;-72
2023/12/02 04:39:25;;;;;;;16.63;9.23;;;4.20;99.90;;;;;;5028269;28;19919;-73
2023/12/02 04:41:51;;;;;;;17.23;8.88;;;4.10;99.90;;;;;;5027275;28;20087;-75
2023/12/02 04:44:16;;;;;;;17.77;10.20;;;4.10;99.90;;;;;;5028373;28;20041;-74
2023/12/02 04:46:42;;;;;;;20.50;10.53;;;4.10;99.90;;;;;;5028167;28;20026;-74
2023/12/02 04:49:08;;;;;;;18.98;10.70;;;4.20;99.90;;;;;;5028645;28;20037;-77
2023/12/02 04:51:33;;;;;;;18.53;10.53;;;4.20;99.90;;;;;;5028664;28;20040;-81
2023/12/02 04:53:59;;;;;;;19.47;10.73;;;4.20;99.90;;;;;;5028211;28;20029;-81
2023/12/02 04:56:25;;;;;;;20.08;11.05;;;4.20;99.90;;;;;;5028205;28;20764;-81
2023/12/02 04:58:51;;;;;;;22.23;11.27;;;4.20;99.90;;;;;;5027944;28;20088;-79
2023/12/02 05:01:16;;;;;;;23.83;11.47;;;4.20;99.90;;;;;;5039265;28;20033;-80
2023/12/02 05:03:42;;;;;;;24.37;12.40;;;4.20;99.90;;;;;;5048731;28;20358;-71
2023/12/02 05:06:12;;;;;;;28.63;13.43;;;4.10;99.90;;;;;;5047804;28;20024;-72
2023/12/02 05:08:38;;;;;;;22.35;11.65;;;4.20;99.90;;;;;;5047460;28;20029;-76
2023/12/02 05:11:04;;;;;;;24.63;10.70;;;4.20;99.90;;;;;;5047752;28;20024;-71
2023/12/02 05:13:29;;;;;;;22.98;12.07;;;4.10;99.90;;;;;;5047650;28;20033;-77
2023/12/02 05:15:55;;;;;;;23.27;11.33;;;4.10;99.90;;;;;;5047933;28;20029;-71
2023/12/02 05:18:21;;;;;;;23.50;11.57;;;4.20;99.90;;;;;;5048082;28;20119;-73
2023/12/02 05:20:46;;;;;;;21.83;11.83;;;4.20;99.90;;;;;;5047792;28;20029;-71
2023/12/02 05:23:12;;;;;;;22.40;11.77;;;4.10;99.90;;;;;;5047562;28;20072;-70
2023/12/02 05:25:37;;;;;;;22.47;11.73;;;4.10;99.90;;;;;;5047491;28;20695;-71
2023/12/02 05:28:03;;;;;;;23.83;11.60;;;4.10;99.90;;;;;;5047318;28;20033;-72
2023/12/02 05:30:29;;;;;;;22.08;11.20;;;4.10;99.90;;;;;;5052916;28;20028;-71
2023/12/02 05:32:54;;;;;;;22.87;11.93;;;4.10;99.90;;;;;;5067065;28;20028;-76
2023/12/02 05:35:22;;;;;;;26.37;11.97;;;4.00;99.90;;;;;;5067088;28;20028;-80
2023/12/02 05:37:47;;;;;;;21.05;11.20;;;4.10;99.90;;;;;;5067275;28;20068;-80
2023/12/02 05:40:13;;;;;;;23.30;11.90;;;4.10;99.90;;;;;;5067099;28;20182;-80
2023/12/02 05:42:39;;;;;;;24.53;11.03;;;4.10;99.90;;;;;;5067533;28;20424;-80
2023/12/02 05:45:05;;;;;;;20.13;10.73;;;4.10;99.90;;;;;;5067444;28;20773;-81
2023/12/02 05:47:31;;;;;;;;;;;4.00;99.90;;;;;;5067810;28;20042;-81
2023/12/02 05:49:56;;;;;;;19.55;8.77;;;4.00;99.90;;;;;;5067143;28;19908;-74
2023/12/02 05:52:22;;;;;;;14.97;8.50;;;4.00;99.90;;;;;;5066701;28;20032;-71
2023/12/02 05:54:48;;;;;;;16.65;8.63;;;4.00;99.90;;;;;;5065868;28;20020;-71
2023/12/02 05:57:14;;;;;;;18.80;9.23;;;4.00;99.90;;;;;;5065853;28;20028;-70
2023/12/02 05:59:39;;;;;;;19.13;9.80;;;4.00;99.90;;;;;;5064219;28;20112;-71
2023/12/02 06:02:05;;;;;;;17.73;9.40;;;4.00;99.90;;;;;;5046890;28;20033;-72
2023/12/02 06:04:31;;;;;;;20.13;10.03;;;4.00;99.90;;;;;;5046732;28;20082;-74
2023/12/02 06:06:57;;;;;;;23.02;11.05;;;3.90;99.90;;;;;;5047348;28;20083;-77
2023/12/02 06:09:22;;;;;;;19.25;9.68;;;3.90;99.90;;;;;;5046773;28;20021;-73
2023/12/02 06:11:48;;;;;;;21.50;10.80;;;3.80;99.90;;;;;;5046619;28;20540;-77
2023/12/02 06:14:13;;;;;;;20.53;10.23;;;3.90;99.90;;;;;;5046195;28;20017;-73
2023/12/02 06:16:39;;;;;;;22.63;11.17;;;3.90;99.90;;;;;;5045612;28;20096;-74
2023/12/02 06:19:05;;;;;;;26.27;11.63;;;3.90;99.90;;;;;;5034066;28;20386;-74
2023/12/02 06:21:30;;;;;;;23.37;11.87;;;4.00;99.90;;;;;;5039061;28;20036;-76
2023/12/02 06:23:56;;;;;;;24.63;11.60;;;3.90;99.90;;;;;;5039317;28;20798;-73
2023/12/02 06:26:22;;;;;;;23.33;10.70;;;3.90;99.90;;;;;;5027786;28;20064;-72
2023/12/02 06:28:49;;;;;;;23.30;11.85;;;3.90;99.90;;;;;;5037385;28;20025;-74
2023/12/02 06:31:16;;;;;;;23.30;11.68;;;3.90;99.90;;;;;;5037055;28;20715;-74
2023/12/02 06:33:43;;;;;;;30.25;11.60;;;3.90;99.90;;;;;;5036128;28;20082;-74
2023/12/02 06:36:09;;;;;;;20.85;10.63;;;3.90;99.90;;;;;;5039335;28;20543;-78
2023/12/02 06:38:38;;;;;;;23.95;10.75;;;3.80;99.90;;;;;;5040650;28;20033;-76
2023/12/02 06:41:04;;;;;;;23.30;11.18;;;3.90;99.90;;;;;;5040325;28;20520;-74
2023/12/02 06:43:29;;;;;;;23.30;11.43;;;3.90;99.90;;;;;;5044097;28;20052;-78
2023/12/02 06:45:55;;;;;;;19.95;10.48;;;3.90;99.90;;;;;;5041400;28;20036;-76
2023/12/02 06:48:20;;;;;;;22.10;10.30;;;3.90;99.90;;;;;;5038882;28;20563;-77
2023/12/02 06:50:46;;;;;;;24.13;10.67;;;3.80;99.90;;;;;;5040492;28;20029;-76
2023/12/02 06:53:15;;;;;;;20.87;11.47;;;3.80;99.90;;;;;;5047257;28;20024;-77
2023/12/02 06:55:41;;;;;;;23.77;11.90;;;3.80;99.90;;;;;;5039253;28;20526;-76
2023/12/02 06:58:07;;;;;;;23.08;11.85;;;3.70;99.90;;;;;;5034732;28;20087;-77
2023/12/02 07:00:33;;;;;;;26.98;12.63;;;3.70;99.90;;;;;;5034117;28;20120;-76
2023/12/02 07:02:59;;;;;;;27.00;13.20;;;3.80;99.90;;;;;;5035157;28;20128;-77
2023/12/02 07:05:26;;;;;;;33.10;14.20;;;3.80;99.90;;;;;;5038858;28;20021;-77
2023/12/02 07:07:51;;;;;;;27.33;13.77;;;3.70;99.90;;;;;;5029084;28;20128;-77
2023/12/02 07:10:18;;;;;;;26.65;12.63;;;3.60;99.90;;;;;;5037581;28;20124;-76
2023/12/02 07:12:44;;;;;;;;;;;3.70;99.90;;;;;;5036213;28;20025;-74
2023/12/02 07:15:09;;;;;;;29.75;12.63;;;3.70;99.90;;;;;;5033395;28;20384;-71
2023/12/02 07:17:35;;;;;;;30.23;14.25;;;3.70;99.90;;;;;;5040111;28;20715;-72
2023/12/02 07:20:01;;;;;;;25.13;13.23;;;3.80;99.90;;;;;;5038510;28;20113;-71
2023/12/02 07:22:26;;;;;;;27.63;13.63;;;3.70;99.90;;;;;;5034874;28;20036;-70
2023/12/02 07:24:53;;;;;;;26.97;12.87;;;3.70;99.90;;;;;;5031021;28;20057;-71
2023/12/02 07:27:18;;;;;;;31.13;14.30;;;3.80;99.90;;;;;;5034578;28;20099;-70
2023/12/02 07:29:44;;;;;;;33.97;16.07;;;3.60;99.90;;;;;;5029538;28;20040;-70
2023/12/02 07:32:09;;;;;;;31.67;15.03;;;3.70;99.90;;;;;;5035789;28;20033;-71
2023/12/02 07:34:35;;;;;;;30.23;13.70;;;3.70;99.90;;;;;;5034648;28;20036;-71
2023/12/02 07:37:01;;;;;;;26.10;12.98;;;3.70;99.90;;;;;;5031538;28;20041;-71
2023/12/02 07:39:27;;;;;;;19.30;10.30;;;3.60;99.90;;;;;;5026072;28;20048;-71
2023/12/02 07:41:53;;;;;;;16.47;8.13;;;3.60;99.90;;;;;;5036635;28;20052;-74
2023/12/02 07:44:18;;;;;;;14.43;8.55;;;3.50;99.90;;;;;;5037166;28;20084;-75
2023/12/02 07:46:44;;;;;;;19.83;7.57;;;3.40;99.90;;;;;;5044621;28;20059;-76
2023/12/02 07:49:10;;;;;;;12.40;7.35;;;3.20;99.90;;;;;;5040568;28;20020;-78
2023/12/02 07:51:36;;;;;;;14.35;7.82;;;3.20;99.90;;;;;;5034045;28;20446;-73
2023/12/02 07:54:02;;;;;;;14.73;6.97;;;3.30;99.90;;;;;;5048284;28;20137;-78
2023/12/02 07:56:28;;;;;;;14.50;7.60;;;3.30;99.90;;;;;;5038445;28;20034;-74
2023/12/02 07:58:55;;;;;;;15.98;8.40;;;3.20;99.90;;;;;;5032190;28;20029;-72
2023/12/02 08:01:21;;;;;;;22.02;9.20;;;3.20;99.90;;;;;;5031747;28;20048;-77
2023/12/02 08:03:46;;;;;;;16.38;9.30;;;3.10;99.90;;;;;;5032623;28;20083;-77
2023/12/02 08:06:12;;;;;;;17.53;8.43;;;3.10;99.90;;;;;;5032101;28;20052;-77
2023/12/02 08:08:38;;;;;;;17.50;8.83;;;3.10;99.90;;;;;;5027619;28;21266;-77
2023/12/02 08:11:03;;;;;;;17.07;8.97;;;3.10;99.90;;;;;;5050591;28;20145;-80
2023/12/02 08:13:29;;;;;;;19.08;9.15;;;3.10;99.90;;;;;;5035601;28;20581;-79
2023/12/02 08:15:55;;;;;;;16.13;8.77;;;3.10;99.90;;;;;;5033771;28;20044;-78
2023/12/02 08:18:21;;;;;;;18.57;9.10;;;3.10;99.90;;;;;;5035394;28;20455;-78
2023/12/02 08:20:46;;;;;;;15.45;8.88;;;3.10;99.90;;;;;;5040262;28;20025;-76
2023/12/02 08:23:12;;;;;;;19.90;9.70;;;3.20;99.90;;;;;;5037882;28;20060;-74
2023/12/02 08:25:38;;;;;;;19.13;9.63;;;3.10;99.90;;;;;;5037938;28;20025;-77
2023/12/02 08:28:04;;;;;;;19.35;9.27;;;3.00;99.90;;;;;;5036344;28;20033;-72
2023/12/02 08:30:29;;;;;;;15.93;8.60;;;3.10;99.90;;;;;;5036063;28;20493;-73
2023/12/02 08:32:55;;;;;;;21.07;9.50;;;3.20;99.90;;;;;;5035196;28;20029;-77
2023/12/02 08:35:21;;;;;;;19.50;10.43;;;3.20;99.90;;;;;;5031033;28;20332;-75
2023/12/02 08:37:47;;;;;;;20.08;10.18;;;3.30;99.90;;;;;;5037131;28;20033;-78
2023/12/02 08:40:13;;;;;;;20.95;10.45;;;3.30;99.90;;;;;;5037137;28;20038;-77
2023/12/02 08:42:39;;;;;;;24.02;9.98;;;3.30;99.90;;;;;;5038870;28;20542;-78
2023/12/02 08:45:05;;;;;;;22.10;10.17;;;3.30;99.90;;;;;;5037773;28;20071;-83
2023/12/02 08:47:31;;;;;;;20.83;10.13;;;3.30;99.90;;;;;;5038882;28;20105;-78
2023/12/02 08:49:57;;;;;;;17.35;9.38;;;3.20;99.90;;;;;;5039752;28;20135;-72
2023/12/02 08:52:22;;;;;;;16.88;9.48;;;3.30;99.90;;;;;;5035541;28;20507;-71
2023/12/02 08:54:48;;;;;;;20.03;10.70;;;3.30;99.90;;;;;;5034702;28;20086;-70
2023/12/02 08:57:14;;;;;;;18.20;9.37;;;3.30;99.90;;;;;;5038841;28;20447;-73
2023/12/02 08:59:39;;;;;;;19.20;9.20;;;3.30;99.90;;;;;;5035399;28;20520;-73
2023/12/02 09:02:07;;;;;;;17.67;9.27;;;3.20;99.90;;;;;;5035893;28;20048;-72
2023/12/02 09:04:32;;;;;;;19.13;8.82;;;3.20;99.90;;;;;;5050666;28;20025;-73
2023/12/02 09:06:58;;;;;;;16.80;8.50;;;3.20;99.90;;;;;;5037264;28;20048;-70
2023/12/02 09:09:24;;;;;;;17.10;9.45;;;3.20;99.90;;;;;;5033686;28;20048;-72
2023/12/02 09:11:50;;;;;;;20.23;10.27;;;3.20;99.90;;;;;;5034184;28;20037;-77
2023/12/02 09:14:16;;;;;;;18.25;9.48;;;3.20;99.90;;;;;;5036512;28;20507;-76
2023/12/02 09:16:46;;;;;;;20.13;9.77;;;3.20;99.90;;;;;;5032919;28;20137;-80
2023/12/02 09:20:00;;;;;;;18.25;9.57;;;3.10;99.90;;;;;;5035109;28;20280;-73
2023/12/02 09:22:46;;;;;;;19.45;9.30;;;3.10;99.90;;;;;;5062389;28;20075;-78
2023/12/02 09:25:27;;;;;;;19.77;9.57;;;3.10;99.90;;;;;;5062752;28;20036;-71
2023/12/02 09:28:07;;;;;;;19.88;9.65;;;3.00;99.90;;;;;;5045264;28;20037;-72
2023/12/02 09:30:34;;;;;;;19.75;9.77;;;3.00;99.90;;;;;;5034500;28;20024;-75
2023/12/02 09:33:00;;;;;;;19.20;10.00;;;3.10;99.90;;;;;;5034037;28;20029;-76
2023/12/02 09:35:27;;;;;;;21.15;10.60;;;2.90;99.90;;;;;;5033305;28;20032;-73
2023/12/02 09:37:55;;;;;;;21.73;10.50;;;3.00;99.90;;;;;;5036170;28;20025;-70
2023/12/02 09:40:20;;;;;;;21.38;10.52;;;3.00;99.90;;;;;;5039117;28;20465;-73
2023/12/02 09:43:07;;;;;;;24.07;10.20;;;3.00;99.90;;;;;;5035194;28;20041;-71
2023/12/02 09:45:38;;;;;;;21.77;11.38;;;3.00;99.90;;;;;;5042099;28;20079;-74
2023/12/02 09:48:17;;;;;;;19.98;10.07;;;2.90;99.90;;;;;;5039225;28;20037;-74
2023/12/02 09:51:09;;;;;;;21.90;10.95;;;2.90;99.90;;;;;;5036829;28;20044;-76
2023/12/02 09:54:10;;;;;;;22.02;11.73;;;2.90;99.90;;;;;;5033239;28;20057;-77
2023/12/02 09:56:44;;;;;;;17.27;10.10;;;2.80;99.90;;;;;;5037559;28;20411;-77
2023/12/02 09:59:18;;;;;;;23.17;10.10;;;2.80;99.90;;;;;;5037907;28;20118;-76
2023/12/02 10:02:11;;;;;;;19.27;11.10;;;2.90;99.90;;;;;;5034678;28;20628;-78
2023/12/02 10:04:52;;;;;;;21.40;10.35;;;2.90;99.90;;;;;;5038666;28;20497;-78
2023/12/02 10:07:34;;;;;;;18.45;10.95;;;2.80;99.90;;;;;;5036848;28;20028;-77
2023/12/02 10:10:13;;;;;;;22.60;11.65;;;2.80;99.90;;;;;;5032886;28;20025;-74
2023/12/02 10:12:57;;;;;;;24.35;11.88;;;2.90;99.90;;;;;;5058490;28;20025;-78
2023/12/02 10:15:28;;;;;;;21.38;10.43;;;2.90;99.90;;;;;;5041497;28;20029;-74
2023/12/02 10:18:00;;;;;;;21.55;10.95;;;2.90;99.90;;;;;;5048558;28;20123;-78
2023/12/02 10:20:33;;;;;;;21.15;11.32;;;3.00;99.90;;;;;;5054402;28;20081;-78
2023/12/02 10:23:09;;;;;;;23.63;11.48;;;2.90;99.90;;;;;;5045638;28;20539;-78
2023/12/02 10:25:50;;;;;;;21.58;11.20;;;3.00;99.90;;;;;;5038688;28;20163;-79
2023/12/02 10:28:34;;;;;;;23.38;10.63;;;3.00;99.90;;;;;;5047488;28;20036;-76
2023/12/02 10:31:04;;;;;;;24.13;11.45;;;3.00;99.90;;;;;;5033192;28;20037;-75
2023/12/02 10:33:52;;;;;;;24.90;12.93;;;3.00;99.90;;;;;;5048708;28;20466;-77
2023/12/02 10:36:20;;;;;;;25.33;13.07;;;3.00;99.90;;;;;;5043275;28;20072;-69
2023/12/02 10:38:58;;;;;;;28.30;12.88;;;3.00;99.90;;;;;;5041188;28;20111;-75
2023/12/02 10:41:29;;;;;;;24.88;12.95;;;3.00;99.90;;;;;;5046201;28;20400;-73
2023/12/02 10:44:00;;;;;;;24.77;12.88;;;3.00;99.90;;;;;;5054095;28;20033;-73
2023/12/02 10:46:26;;;;;;;21.48;12.32;;;3.00;99.90;;;;;;5040464;28;20083;-71
2023/12/02 10:48:54;;;;;;;19.50;10.52;;;3.00;99.90;;;;;;5039625;28;20531;-73
2023/12/02 10:51:23;;;;;;;20.85;11.55;;;3.00;99.90;;;;;;5038365;28;20537;-70
2023/12/02 10:53:50;;;;;;;18.92;10.10;;;2.90;99.90;;;;;;5038562;28;20062;-70
2023/12/02 10:56:23;;;;;;;20.60;10.38;;;3.10;99.90;;;;;;5041172;28;20032;-70
2023/12/02 10:58:50;;;;;;;22.25;10.68;;;3.00;99.90;;;;;;5040475;28;20035;-69
2023/12/02 11:01:29;;;;;;;21.30;10.70;;;3.10;99.90;;;;;;5044782;28;20021;-71
2023/12/02 11:04:27;;;;;;;21.30;11.50;;;3.00;99.90;;;;;;5041310;28;20039;-72
2023/12/02 11:07:03;;;;;;;22.08;11.18;;;3.10;99.90;;;;;;5039978;28;20039;-70
2023/12/02 11:09:44;;;;;;;22.77;10.75;;;3.10;99.90;;;;;;5043395;28;20029;-77
2023/12/02 11:12:28;;;;;;;22.77;11.80;;;3.00;99.90;;;;;;5040423;28;20524;-72
2023/12/02 11:15:02;;;;;;;28.02;10.55;;;3.10;99.90;;;;;;5041756;28;20433;-69
2023/12/02 11:17:38;;;;;;;25.90;11.30;;;3.10;99.90;;;;;;5041534;28;20026;-71
2023/12/02 11:20:14;;;;;;;26.60;12.70;;;3.10;99.90;;;;;;5043478;28;20017;-72
2023/12/02 11:23:24;;;;;;;25.83;11.98;;;3.10;99.90;;;;;;5059374;28;20052;-78
2023/12/02 11:26:28;;;;;;;20.58;10.30;;;3.10;99.90;;;;;;5044843;28;20118;-73
2023/12/02 11:29:15;;;;;;;19.02;9.60;;;3.00;99.90;;;;;;5044089;28;20036;-72
2023/12/02 11:31:40;;;;;;;20.88;10.18;;;3.00;99.90;;;;;;5047353;28;20025;-75
2023/12/02 11:34:40;;;;;;;15.83;8.70;;;3.10;99.90;;;;;;5045348;28;20553;-71
2023/12/02 11:37:24;;;;;;;15.50;8.57;;;3.10;99.90;;;;;;5045215;28;20090;-73
2023/12/02 11:40:02;;;;;;;14.30;7.53;;;3.10;99.90;;;;;;5044919;28;20033;-74
2023/12/02 11:42:34;;;;;;;15.77;8.13;;;3.00;99.90;;;;;;5042943;28;20453;-74
2023/12/02 11:45:18;;;;;;;15.35;7.32;;;3.00;99.90;;;;;;5041079;28;20025;-78
2023/12/02 11:47:54;;;;;;;14.10;7.18;;;3.00;99.90;;;;;;5039920;28;20040;-76
2023/12/02 11:50:45;;;;;;;16.63;6.97;;;3.00;99.90;;;;;;5039690;28;20082;-76
2023/12/02 11:53:49;;;;;;;14.18;7.57;;;3.10;99.90;;;;;;5051956;28;20036;-74
2023/12/02 11:56:21;;;;;;;12.10;6.05;;;3.10;99.90;;;;;;5042524;28;20030;-77
2023/12/02 11:58:54;;;;;;;14.45;7.57;;;3.00;99.90;;;;;;5049570;28;20029;-74
2023/12/02 12:01:44;;;;;;;12.52;5.95;;;3.00;99.90;;;;;;5050203;28;20028;-77
2023/12/02 12:04:36;;;;;;;15.15;8.35;;;2.90;99.90;;;;;;5046293;28;20029;-77
2023/12/02 12:07:33;;;;;;;11.35;6.13;;;2.90;99.90;;;;;;5044555;28;20021;-73
2023/12/02 12:10:13;;;;;;;10.70;6.30;;;2.80;99.90;;;;;;5047610;28;20029;-75
2023/12/02 12:12:43;;;;;;;13.57;6.93;;;2.80;99.90;;;;;;5040591;28;20049;-76
2023/12/02 12:15:08;;;;;;;12.40;6.70;;;2.80;99.90;;;;;;5049704;28;20107;-74
2023/12/02 12:17:34;;;;;;;12.75;7.28;;;2.90;99.90;;;;;;5048532;28;20111;-71
2023/12/02 12:20:20;;;;;;;14.13;7.65;;;2.80;99.90;;;;;;5047210;28;20033;-74
2023/12/02 12:22:46;;;;;;;12.50;6.70;;;2.70;99.90;;;;;;5040601;28;20045;-72
2023/12/02 12:25:12;;;;;;;13.75;7.30;;;2.70;99.90;;;;;;5045884;28;20075;-75
2023/12/02 12:27:38;;;;;;;12.43;6.75;;;2.80;99.90;;;;;;5048355;28;20032;-75
2023/12/02 12:30:05;;;;;;;;;;;2.70;99.90;;;;;;5048266;28;20029;-81
2023/12/02 12:32:31;;;;;;;13.20;7.57;;;2.70;99.90;;;;;;5045459;28;19913;-75
2023/12/02 12:34:57;;;;;;;24.00;8.43;;;2.70;99.90;;;;;;5046747;28;20457;-77
2023/12/02 12:37:23;;;;;;;16.20;8.75;;;2.70;99.90;;;;;;5047591;28;20102;-75
2023/12/02 12:39:49;;;;;;;15.45;8.30;;;2.70;99.90;;;;;;5050208;28;20055;-74
2023/12/02 12:42:17;;;;;;;16.92;8.57;;;2.70;99.90;;;;;;5046701;28;20045;-73
2023/12/02 12:44:44;;;;;;;14.75;7.95;;;2.70;99.90;;;;;;5040841;28;20256;-74
2023/12/02 12:47:11;;;;;;;13.07;8.10;;;2.70;99.90;;;;;;5049959;28;20516;-71
2023/12/02 12:49:41;;;;;;;21.05;9.30;;;2.70;99.90;;;;;;5048336;28;20016;-76
2023/12/02 12:52:08;;;;;;;16.65;9.07;;;2.70;99.90;;;;;;5048783;28;20029;-71